sensor_id;sensor_type;location;lat;lon;timestamp;P1;durP1;ratioP1;P2;durP2;ratioP2
3647;SDS011;1840;48.892;15.312;2023-05-07T00:01:51;7.83;;;5.83;;
3647;SDS011;1840;48.892;15.312;2023-05-07T00:04:19;6.40;;;5.33;;
3647;SDS011;1840;48.892;15.312;2023-05-07T00:06:48;8.10;;;5.77;;
3647;SDS011;1840;48.892;15.312;2023-05-07T00:09:17;6.87;;;5.17;;
3647;SDS011;1840;48.892;15.312;2023-05-07T00:11:45;6.70;;;5.40;;
3647;SDS011;1840;48.892;15.312;2023-05-07T00:14:13;10.33;;;5.80;;
3647;SDS011;1840;48.892;15.312;2023-05-07T00:16:41;10.50;;;7.40;;
3647;SDS011;1840;48.892;15.312;2023-05-07T00:19:09;8.30;;;6.30;;
3647;SDS011;1840;48.892;15.312;2023-05-07T00:21:37;7.53;;;6.13;;
3647;SDS011;1840;48.892;15.312;2023-05-07T00:24:05;9.07;;;5.90;;
3647;SDS011;1840;48.892;15.312;2023-05-07T00:26:34;7.73;;;5.97;;
3647;SDS011;1840;48.892;15.312;2023-05-07T00:29:02;9.43;;;6.40;;
3647;SDS011;1840;48.892;15.312;2023-05-07T00:31:30;8.53;;;6.40;;
3647;SDS011;1840;48.892;15.312;2023-05-07T00:33:58;8.97;;;6.17;;
3647;SDS011;1840;48.892;15.312;2023-05-07T00:36:26;7.03;;;5.03;;
3647;SDS011;1840;48.892;15.312;2023-05-07T00:38:56;13.30;;;5.57;;
3647;SDS011;1840;48.892;15.312;2023-05-07T00:41:26;8.10;;;5.30;;
3647;SDS011;1840;48.892;15.312;2023-05-07T00:43:55;8.20;;;5.30;;
3647;SDS011;1840;48.892;15.312;2023-05-07T00:46:24;7.10;;;5.73;;
3647;SDS011;1840;48.892;15.312;2023-05-07T00:48:52;6.47;;;5.30;;
3647;SDS011;1840;48.892;15.312;2023-05-07T00:51:21;8.97;;;6.67;;
3647;SDS011;1840;48.892;15.312;2023-05-07T00:53:50;7.73;;;5.47;;
3647;SDS011;1840;48.892;15.312;2023-05-07T00:56:18;8.40;;;6.53;;
3647;SDS011;1840;48.892;15.312;2023-05-07T00:58:46;7.93;;;5.63;;
3647;SDS011;1840;48.892;15.312;2023-05-07T01:01:16;9.30;;;6.90;;
3647;SDS011;1840;48.892;15.312;2023-05-07T01:03:44;8.70;;;6.40;;
3647;SDS011;1840;48.892;15.312;2023-05-07T01:06:13;9.87;;;6.50;;
3647;SDS011;1840;48.892;15.312;2023-05-07T01:08:44;14.17;;;7.50;;
3647;SDS011;1840;48.892;15.312;2023-05-07T01:11:13;11.50;;;7.97;;
3647;SDS011;1840;48.892;15.312;2023-05-07T01:13:41;13.17;;;7.43;;
3647;SDS011;1840;48.892;15.312;2023-05-07T01:16:09;15.73;;;8.60;;
3647;SDS011;1840;48.892;15.312;2023-05-07T01:18:39;16.20;;;10.80;;
3647;SDS011;1840;48.892;15.312;2023-05-07T01:21:07;21.60;;;12.60;;
3647;SDS011;1840;48.892;15.312;2023-05-07T01:23:40;16.80;;;11.60;;
3647;SDS011;1840;48.892;15.312;2023-05-07T01:26:08;12.93;;;9.53;;
3647;SDS011;1840;48.892;15.312;2023-05-07T01:28:36;14.93;;;10.77;;
3647;SDS011;1840;48.892;15.312;2023-05-07T01:31:05;28.30;;;6.50;;
3647;SDS011;1840;48.892;15.312;2023-05-07T01:33:35;8.93;;;7.47;;
3647;SDS011;1840;48.892;15.312;2023-05-07T01:36:06;10.20;;;8.57;;
3647;SDS011;1840;48.892;15.312;2023-05-07T01:38:35;7.30;;;6.30;;
3647;SDS011;1840;48.892;15.312;2023-05-07T01:41:06;8.33;;;6.50;;
3647;SDS011;1840;48.892;15.312;2023-05-07T01:43:34;15.23;;;10.17;;
3647;SDS011;1840;48.892;15.312;2023-05-07T01:46:02;17.70;;;12.00;;
3647;SDS011;1840;48.892;15.312;2023-05-07T01:48:31;18.20;;;12.10;;
3647;SDS011;1840;48.892;15.312;2023-05-07T01:51:00;19.20;;;10.63;;
3647;SDS011;1840;48.892;15.312;2023-05-07T01:53:30;13.50;;;9.70;;
3647;SDS011;1840;48.892;15.312;2023-05-07T01:56:03;19.20;;;9.97;;
3647;SDS011;1840;48.892;15.312;2023-05-07T01:58:33;17.80;;;11.77;;
3647;SDS011;1840;48.892;15.312;2023-05-07T02:01:01;13.77;;;9.97;;
3647;SDS011;1840;48.892;15.312;2023-05-07T02:03:29;18.80;;;12.07;;
3647;SDS011;1840;48.892;15.312;2023-05-07T02:05:57;14.27;;;10.07;;
3647;SDS011;1840;48.892;15.312;2023-05-07T02:08:25;14.90;;;9.47;;
3647;SDS011;1840;48.892;15.312;2023-05-07T02:10:53;16.37;;;10.57;;
3647;SDS011;1840;48.892;15.312;2023-05-07T02:13:23;9.90;;;7.33;;
3647;SDS011;1840;48.892;15.312;2023-05-07T02:15:51;16.00;;;9.87;;
3647;SDS011;1840;48.892;15.312;2023-05-07T02:18:19;22.10;;;8.80;;
3647;SDS011;1840;48.892;15.312;2023-05-07T02:20:48;9.70;;;7.40;;
3647;SDS011;1840;48.892;15.312;2023-05-07T02:23:16;11.20;;;7.27;;
3647;SDS011;1840;48.892;15.312;2023-05-07T02:25:44;9.20;;;6.43;;
3647;SDS011;1840;48.892;15.312;2023-05-07T02:28:12;11.03;;;7.97;;
3647;SDS011;1840;48.892;15.312;2023-05-07T02:30:41;9.60;;;7.00;;
3647;SDS011;1840;48.892;15.312;2023-05-07T02:33:09;13.20;;;8.00;;
3647;SDS011;1840;48.892;15.312;2023-05-07T02:35:39;10.50;;;7.60;;
3647;SDS011;1840;48.892;15.312;2023-05-07T02:38:07;9.23;;;6.53;;
3647;SDS011;1840;48.892;15.312;2023-05-07T02:40:36;12.13;;;8.50;;
3647;SDS011;1840;48.892;15.312;2023-05-07T02:43:06;10.90;;;7.90;;
3647;SDS011;1840;48.892;15.312;2023-05-07T02:45:34;11.00;;;6.93;;
3647;SDS011;1840;48.892;15.312;2023-05-07T02:48:04;10.50;;;7.25;;
3647;SDS011;1840;48.892;15.312;2023-05-07T02:50:33;7.55;;;6.00;;
3647;SDS011;1840;48.892;15.312;2023-05-07T02:53:01;9.00;;;5.80;;
3647;SDS011;1840;48.892;15.312;2023-05-07T02:55:29;7.77;;;5.47;;
3647;SDS011;1840;48.892;15.312;2023-05-07T02:57:57;7.30;;;5.87;;
3647;SDS011;1840;48.892;15.312;2023-05-07T03:00:25;13.57;;;8.87;;
3647;SDS011;1840;48.892;15.312;2023-05-07T03:02:53;9.70;;;6.57;;
3647;SDS011;1840;48.892;15.312;2023-05-07T03:05:23;8.80;;;6.83;;
3647;SDS011;1840;48.892;15.312;2023-05-07T03:07:51;8.40;;;6.43;;
3647;SDS011;1840;48.892;15.312;2023-05-07T03:10:19;7.37;;;5.80;;
3647;SDS011;1840;48.892;15.312;2023-05-07T03:12:47;8.03;;;6.43;;
3647;SDS011;1840;48.892;15.312;2023-05-07T03:15:15;9.60;;;8.03;;
3647;SDS011;1840;48.892;15.312;2023-05-07T03:17:43;11.57;;;9.23;;
3647;SDS011;1840;48.892;15.312;2023-05-07T03:20:11;12.87;;;9.17;;
3647;SDS011;1840;48.892;15.312;2023-05-07T03:22:41;10.30;;;7.90;;
3647;SDS011;1840;48.892;15.312;2023-05-07T03:25:10;8.90;;;6.70;;
3647;SDS011;1840;48.892;15.312;2023-05-07T03:27:38;13.57;;;5.93;;
3647;SDS011;1840;48.892;15.312;2023-05-07T03:30:06;7.63;;;5.93;;
3647;SDS011;1840;48.892;15.312;2023-05-07T03:32:36;10.63;;;7.23;;
3647;SDS011;1840;48.892;15.312;2023-05-07T03:35:04;14.68;;;9.10;;
3647;SDS011;1840;48.892;15.312;2023-05-07T03:37:33;13.80;;;9.50;;
3647;SDS011;1840;48.892;15.312;2023-05-07T03:40:02;13.70;;;9.50;;
3647;SDS011;1840;48.892;15.312;2023-05-07T03:42:31;19.30;;;11.73;;
3647;SDS011;1840;48.892;15.312;2023-05-07T03:44:59;15.20;;;10.00;;
3647;SDS011;1840;48.892;15.312;2023-05-07T03:47:27;13.93;;;9.77;;
3647;SDS011;1840;48.892;15.312;2023-05-07T03:49:55;15.60;;;10.27;;
3647;SDS011;1840;48.892;15.312;2023-05-07T03:52:24;16.83;;;11.23;;
3647;SDS011;1840;48.892;15.312;2023-05-07T03:54:52;11.23;;;8.50;;
3647;SDS011;1840;48.892;15.312;2023-05-07T03:57:22;18.70;;;10.20;;
3647;SDS011;1840;48.892;15.312;2023-05-07T03:59:50;12.43;;;9.37;;
3647;SDS011;1840;48.892;15.312;2023-05-07T04:02:18;18.23;;;11.03;;
3647;SDS011;1840;48.892;15.312;2023-05-07T04:04:48;17.33;;;10.53;;
3647;SDS011;1840;48.892;15.312;2023-05-07T04:07:16;17.03;;;11.43;;
3647;SDS011;1840;48.892;15.312;2023-05-07T04:09:44;16.83;;;11.70;;
3647;SDS011;1840;48.892;15.312;2023-05-07T04:12:12;16.10;;;10.50;;
3647;SDS011;1840;48.892;15.312;2023-05-07T04:14:42;15.30;;;10.97;;
3647;SDS011;1840;48.892;15.312;2023-05-07T04:17:10;23.65;;;12.95;;
3647;SDS011;1840;48.892;15.312;2023-05-07T04:19:38;19.20;;;12.47;;
3647;SDS011;1840;48.892;15.312;2023-05-07T04:22:06;16.33;;;11.57;;
3647;SDS011;1840;48.892;15.312;2023-05-07T04:24:34;14.10;;;10.07;;
3647;SDS011;1840;48.892;15.312;2023-05-07T04:27:02;19.03;;;11.70;;
3647;SDS011;1840;48.892;15.312;2023-05-07T04:29:30;19.97;;;11.73;;
3647;SDS011;1840;48.892;15.312;2023-05-07T04:32:00;15.37;;;9.93;;
3647;SDS011;1840;48.892;15.312;2023-05-07T04:34:28;15.50;;;10.23;;
3647;SDS011;1840;48.892;15.312;2023-05-07T04:36:58;15.97;;;10.10;;
3647;SDS011;1840;48.892;15.312;2023-05-07T04:39:26;19.63;;;10.47;;
3647;SDS011;1840;48.892;15.312;2023-05-07T04:41:54;15.13;;;10.83;;
3647;SDS011;1840;48.892;15.312;2023-05-07T04:44:23;17.43;;;10.30;;
3647;SDS011;1840;48.892;15.312;2023-05-07T04:46:51;14.52;;;9.15;;
3647;SDS011;1840;48.892;15.312;2023-05-07T04:49:20;17.40;;;11.30;;
3647;SDS011;1840;48.892;15.312;2023-05-07T04:51:48;15.37;;;10.60;;
3647;SDS011;1840;48.892;15.312;2023-05-07T04:54:16;19.90;;;11.30;;
3647;SDS011;1840;48.892;15.312;2023-05-07T04:56:44;21.85;;;12.98;;
3647;SDS011;1840;48.892;15.312;2023-05-07T04:59:12;21.73;;;12.87;;
3647;SDS011;1840;48.892;15.312;2023-05-07T05:01:40;21.23;;;12.67;;
3647;SDS011;1840;48.892;15.312;2023-05-07T05:04:08;22.37;;;13.40;;
3647;SDS011;1840;48.892;15.312;2023-05-07T05:06:38;22.90;;;14.93;;
3647;SDS011;1840;48.892;15.312;2023-05-07T05:09:06;21.90;;;14.77;;
3647;SDS011;1840;48.892;15.312;2023-05-07T05:11:34;20.80;;;14.67;;
3647;SDS011;1840;48.892;15.312;2023-05-07T05:14:02;23.80;;;15.13;;
3647;SDS011;1840;48.892;15.312;2023-05-07T05:16:30;23.40;;;16.47;;
3647;SDS011;1840;48.892;15.312;2023-05-07T05:18:59;29.00;;;17.00;;
3647;SDS011;1840;48.892;15.312;2023-05-07T05:21:27;31.80;;;16.03;;
3647;SDS011;1840;48.892;15.312;2023-05-07T05:23:56;42.03;;;19.43;;
3647;SDS011;1840;48.892;15.312;2023-05-07T05:26:25;24.83;;;16.73;;
3647;SDS011;1840;48.892;15.312;2023-05-07T05:28:53;26.03;;;17.00;;
3647;SDS011;1840;48.892;15.312;2023-05-07T05:31:21;26.70;;;17.57;;
3647;SDS011;1840;48.892;15.312;2023-05-07T05:33:49;26.77;;;17.50;;
3647;SDS011;1840;48.892;15.312;2023-05-07T05:36:17;27.80;;;19.47;;
3647;SDS011;1840;48.892;15.312;2023-05-07T05:38:45;27.50;;;19.13;;
3647;SDS011;1840;48.892;15.312;2023-05-07T05:41:15;29.93;;;18.60;;
3647;SDS011;1840;48.892;15.312;2023-05-07T05:43:42;29.57;;;19.93;;
3647;SDS011;1840;48.892;15.312;2023-05-07T05:46:10;34.70;;;20.20;;
3647;SDS011;1840;48.892;15.312;2023-05-07T05:48:38;32.53;;;20.83;;
3647;SDS011;1840;48.892;15.312;2023-05-07T05:51:06;29.20;;;18.67;;
3647;SDS011;1840;48.892;15.312;2023-05-07T05:53:34;32.45;;;19.13;;
3647;SDS011;1840;48.892;15.312;2023-05-07T05:56:03;32.17;;;18.95;;
3647;SDS011;1840;48.892;15.312;2023-05-07T05:58:33;28.93;;;18.57;;
3647;SDS011;1840;48.892;15.312;2023-05-07T06:01:01;38.73;;;21.80;;
3647;SDS011;1840;48.892;15.312;2023-05-07T06:03:29;33.33;;;21.07;;
3647;SDS011;1840;48.892;15.312;2023-05-07T06:05:58;32.33;;;20.90;;
3647;SDS011;1840;48.892;15.312;2023-05-07T06:08:28;32.50;;;20.70;;
3647;SDS011;1840;48.892;15.312;2023-05-07T06:10:57;30.33;;;20.33;;
3647;SDS011;1840;48.892;15.312;2023-05-07T06:13:26;36.70;;;21.80;;
3647;SDS011;1840;48.892;15.312;2023-05-07T06:15:55;35.10;;;20.80;;
3647;SDS011;1840;48.892;15.312;2023-05-07T06:18:23;32.67;;;20.40;;
3647;SDS011;1840;48.892;15.312;2023-05-07T06:20:52;34.27;;;20.50;;
3647;SDS011;1840;48.892;15.312;2023-05-07T06:23:20;28.40;;;18.10;;
3647;SDS011;1840;48.892;15.312;2023-05-07T06:25:48;30.13;;;19.67;;
3647;SDS011;1840;48.892;15.312;2023-05-07T06:28:17;30.55;;;18.38;;
3647;SDS011;1840;48.892;15.312;2023-05-07T06:30:46;30.53;;;18.60;;
3647;SDS011;1840;48.892;15.312;2023-05-07T06:33:17;34.43;;;22.23;;
3647;SDS011;1840;48.892;15.312;2023-05-07T06:35:46;33.93;;;21.80;;
3647;SDS011;1840;48.892;15.312;2023-05-07T06:38:14;37.45;;;23.00;;
3647;SDS011;1840;48.892;15.312;2023-05-07T06:40:42;37.43;;;21.90;;
3647;SDS011;1840;48.892;15.312;2023-05-07T06:43:10;37.40;;;22.30;;
3647;SDS011;1840;48.892;15.312;2023-05-07T06:45:38;38.57;;;23.20;;
3647;SDS011;1840;48.892;15.312;2023-05-07T06:48:06;37.53;;;21.97;;
3647;SDS011;1840;48.892;15.312;2023-05-07T06:50:35;37.90;;;23.90;;
3647;SDS011;1840;48.892;15.312;2023-05-07T06:53:03;37.77;;;22.77;;
3647;SDS011;1840;48.892;15.312;2023-05-07T06:55:31;35.97;;;22.60;;
3647;SDS011;1840;48.892;15.312;2023-05-07T06:57:59;35.50;;;21.47;;
3647;SDS011;1840;48.892;15.312;2023-05-07T07:00:28;38.07;;;23.60;;
3647;SDS011;1840;48.892;15.312;2023-05-07T07:02:57;39.33;;;23.50;;
3647;SDS011;1840;48.892;15.312;2023-05-07T07:05:25;41.20;;;24.13;;
3647;SDS011;1840;48.892;15.312;2023-05-07T07:07:57;37.00;;;23.50;;
3647;SDS011;1840;48.892;15.312;2023-05-07T07:10:25;43.50;;;24.40;;
3647;SDS011;1840;48.892;15.312;2023-05-07T07:12:53;47.37;;;23.50;;
3647;SDS011;1840;48.892;15.312;2023-05-07T07:15:21;37.80;;;23.33;;
3647;SDS011;1840;48.892;15.312;2023-05-07T07:17:51;44.47;;;24.53;;
3647;SDS011;1840;48.892;15.312;2023-05-07T07:20:19;42.20;;;26.20;;
3647;SDS011;1840;48.892;15.312;2023-05-07T07:22:47;41.93;;;26.40;;
3647;SDS011;1840;48.892;15.312;2023-05-07T07:25:16;42.60;;;22.30;;
3647;SDS011;1840;48.892;15.312;2023-05-07T07:27:44;47.38;;;24.58;;
3647;SDS011;1840;48.892;15.312;2023-05-07T07:30:12;40.67;;;23.40;;
3647;SDS011;1840;48.892;15.312;2023-05-07T07:32:40;32.67;;;20.10;;
3647;SDS011;1840;48.892;15.312;2023-05-07T07:35:08;53.87;;;27.33;;
3647;SDS011;1840;48.892;15.312;2023-05-07T07:37:37;41.70;;;22.73;;
3647;SDS011;1840;48.892;15.312;2023-05-07T07:40:05;35.97;;;21.80;;
3647;SDS011;1840;48.892;15.312;2023-05-07T07:42:35;38.17;;;22.03;;
3647;SDS011;1840;48.892;15.312;2023-05-07T07:45:04;34.40;;;21.77;;
3647;SDS011;1840;48.892;15.312;2023-05-07T07:47:33;38.97;;;20.43;;
3647;SDS011;1840;48.892;15.312;2023-05-07T07:50:01;32.88;;;19.23;;
3647;SDS011;1840;48.892;15.312;2023-05-07T07:52:29;39.63;;;20.33;;
3647;SDS011;1840;48.892;15.312;2023-05-07T07:54:57;30.70;;;19.73;;
3647;SDS011;1840;48.892;15.312;2023-05-07T07:57:25;34.57;;;19.17;;
3647;SDS011;1840;48.892;15.312;2023-05-07T07:59:54;31.80;;;20.20;;
3647;SDS011;1840;48.892;15.312;2023-05-07T08:02:22;35.67;;;19.05;;
3647;SDS011;1840;48.892;15.312;2023-05-07T08:04:50;35.50;;;19.97;;
3647;SDS011;1840;48.892;15.312;2023-05-07T08:07:19;32.17;;;19.23;;
3647;SDS011;1840;48.892;15.312;2023-05-07T08:09:48;27.43;;;18.57;;
3647;SDS011;1840;48.892;15.312;2023-05-07T08:12:16;34.80;;;21.30;;
3647;SDS011;1840;48.892;15.312;2023-05-07T08:14:45;31.43;;;19.27;;
3647;SDS011;1840;48.892;15.312;2023-05-07T08:17:14;32.20;;;19.37;;
3647;SDS011;1840;48.892;15.312;2023-05-07T08:19:42;32.50;;;19.20;;
3647;SDS011;1840;48.892;15.312;2023-05-07T08:22:10;30.60;;;18.23;;
3647;SDS011;1840;48.892;15.312;2023-05-07T08:24:38;27.47;;;18.57;;
3647;SDS011;1840;48.892;15.312;2023-05-07T08:27:07;31.33;;;19.27;;
3647;SDS011;1840;48.892;15.312;2023-05-07T08:29:35;27.60;;;18.23;;
3647;SDS011;1840;48.892;15.312;2023-05-07T08:32:03;30.00;;;17.93;;
3647;SDS011;1840;48.892;15.312;2023-05-07T08:34:32;33.50;;;17.90;;
3647;SDS011;1840;48.892;15.312;2023-05-07T08:37:00;28.40;;;17.07;;
3647;SDS011;1840;48.892;15.312;2023-05-07T08:39:29;29.03;;;18.07;;
3647;SDS011;1840;48.892;15.312;2023-05-07T08:41:58;30.73;;;18.80;;
3647;SDS011;1840;48.892;15.312;2023-05-07T08:44:28;33.10;;;21.30;;
3647;SDS011;1840;48.892;15.312;2023-05-07T08:47:00;34.70;;;20.77;;
3647;SDS011;1840;48.892;15.312;2023-05-07T08:49:29;31.67;;;19.83;;
3647;SDS011;1840;48.892;15.312;2023-05-07T08:51:58;34.93;;;19.00;;
3647;SDS011;1840;48.892;15.312;2023-05-07T08:54:27;31.73;;;17.57;;
3647;SDS011;1840;48.892;15.312;2023-05-07T08:56:56;32.60;;;21.07;;
3647;SDS011;1840;48.892;15.312;2023-05-07T08:59:24;30.23;;;19.10;;
3647;SDS011;1840;48.892;15.312;2023-05-07T09:01:52;33.07;;;19.50;;
3647;SDS011;1840;48.892;15.312;2023-05-07T09:04:20;32.37;;;20.00;;
3647;SDS011;1840;48.892;15.312;2023-05-07T09:06:48;30.40;;;18.27;;
3647;SDS011;1840;48.892;15.312;2023-05-07T09:09:18;29.77;;;18.97;;
3647;SDS011;1840;48.892;15.312;2023-05-07T09:11:48;29.90;;;18.97;;
3647;SDS011;1840;48.892;15.312;2023-05-07T09:14:24;29.27;;;20.07;;
3647;SDS011;1840;48.892;15.312;2023-05-07T09:16:52;29.87;;;18.63;;
3647;SDS011;1840;48.892;15.312;2023-05-07T09:19:22;26.47;;;16.60;;
3647;SDS011;1840;48.892;15.312;2023-05-07T09:21:57;31.80;;;20.00;;
3647;SDS011;1840;48.892;15.312;2023-05-07T09:24:27;25.97;;;17.13;;
3647;SDS011;1840;48.892;15.312;2023-05-07T09:26:57;25.90;;;15.97;;
3647;SDS011;1840;48.892;15.312;2023-05-07T09:29:26;27.00;;;16.40;;
3647;SDS011;1840;48.892;15.312;2023-05-07T09:31:56;28.83;;;17.63;;
3647;SDS011;1840;48.892;15.312;2023-05-07T09:34:24;25.33;;;15.07;;
3647;SDS011;1840;48.892;15.312;2023-05-07T09:36:52;24.87;;;15.57;;
3647;SDS011;1840;48.892;15.312;2023-05-07T09:39:21;25.67;;;15.93;;
3647;SDS011;1840;48.892;15.312;2023-05-07T09:41:51;25.43;;;16.70;;
3647;SDS011;1840;48.892;15.312;2023-05-07T09:44:20;26.70;;;16.70;;
3647;SDS011;1840;48.892;15.312;2023-05-07T09:46:53;22.13;;;15.00;;
3647;SDS011;1840;48.892;15.312;2023-05-07T09:49:23;21.50;;;14.57;;
3647;SDS011;1840;48.892;15.312;2023-05-07T09:51:52;24.20;;;15.57;;
3647;SDS011;1840;48.892;15.312;2023-05-07T09:54:20;22.90;;;15.40;;
3647;SDS011;1840;48.892;15.312;2023-05-07T09:56:48;26.60;;;15.53;;
3647;SDS011;1840;48.892;15.312;2023-05-07T09:59:18;23.13;;;15.10;;
3647;SDS011;1840;48.892;15.312;2023-05-07T10:01:47;23.37;;;15.77;;
3647;SDS011;1840;48.892;15.312;2023-05-07T10:04:18;26.63;;;14.30;;
3647;SDS011;1840;48.892;15.312;2023-05-07T10:06:48;23.90;;;15.37;;
3647;SDS011;1840;48.892;15.312;2023-05-07T10:09:16;23.10;;;15.17;;
3647;SDS011;1840;48.892;15.312;2023-05-07T10:11:45;24.53;;;14.30;;
3647;SDS011;1840;48.892;15.312;2023-05-07T10:14:15;22.73;;;14.73;;
3647;SDS011;1840;48.892;15.312;2023-05-07T10:16:46;24.70;;;14.40;;
3647;SDS011;1840;48.892;15.312;2023-05-07T10:19:15;23.73;;;14.10;;
3647;SDS011;1840;48.892;15.312;2023-05-07T10:21:48;21.47;;;13.27;;
3647;SDS011;1840;48.892;15.312;2023-05-07T10:24:25;19.20;;;12.87;;
3647;SDS011;1840;48.892;15.312;2023-05-07T10:26:55;24.13;;;14.83;;
3647;SDS011;1840;48.892;15.312;2023-05-07T10:29:32;26.30;;;15.67;;
3647;SDS011;1840;48.892;15.312;2023-05-07T10:32:09;24.63;;;13.47;;
3647;SDS011;1840;48.892;15.312;2023-05-07T10:34:53;22.30;;;13.80;;
3647;SDS011;1840;48.892;15.312;2023-05-07T10:37:24;20.93;;;13.07;;
3647;SDS011;1840;48.892;15.312;2023-05-07T10:39:53;21.63;;;12.83;;
3647;SDS011;1840;48.892;15.312;2023-05-07T10:42:21;20.63;;;12.70;;
3647;SDS011;1840;48.892;15.312;2023-05-07T10:44:51;20.67;;;12.40;;
3647;SDS011;1840;48.892;15.312;2023-05-07T10:47:19;26.08;;;15.27;;
3647;SDS011;1840;48.892;15.312;2023-05-07T10:56:23;18.30;;;11.60;;
3647;SDS011;1840;48.892;15.312;2023-05-07T10:58:56;23.40;;;10.87;;
3647;SDS011;1840;48.892;15.312;2023-05-07T11:02:02;18.40;;;11.10;;
3647;SDS011;1840;48.892;15.312;2023-05-07T11:04:32;19.50;;;12.70;;
3647;SDS011;1840;48.892;15.312;2023-05-07T11:09:56;18.57;;;11.03;;
3647;SDS011;1840;48.892;15.312;2023-05-07T11:15:33;18.37;;;11.63;;
3647;SDS011;1840;48.892;15.312;2023-05-07T11:18:13;19.27;;;11.60;;
3647;SDS011;1840;48.892;15.312;2023-05-07T11:20:55;14.47;;;10.20;;
3647;SDS011;1840;48.892;15.312;2023-05-07T11:26:46;16.03;;;9.93;;
3647;SDS011;1840;48.892;15.312;2023-05-07T11:29:16;14.57;;;9.03;;
3647;SDS011;1840;48.892;15.312;2023-05-07T11:31:50;16.67;;;10.63;;
3647;SDS011;1840;48.892;15.312;2023-05-07T11:34:24;19.93;;;11.70;;
3647;SDS011;1840;48.892;15.312;2023-05-07T11:36:53;15.83;;;10.33;;
3647;SDS011;1840;48.892;15.312;2023-05-07T11:39:25;20.60;;;10.23;;
3647;SDS011;1840;48.892;15.312;2023-05-07T11:41:54;15.73;;;10.43;;
3647;SDS011;1840;48.892;15.312;2023-05-07T11:44:22;19.20;;;11.53;;
3647;SDS011;1840;48.892;15.312;2023-05-07T11:46:50;17.97;;;11.47;;
3647;SDS011;1840;48.892;15.312;2023-05-07T11:49:18;14.10;;;10.03;;
3647;SDS011;1840;48.892;15.312;2023-05-07T11:51:47;14.47;;;8.83;;
3647;SDS011;1840;48.892;15.312;2023-05-07T11:54:16;12.10;;;7.73;;
3647;SDS011;1840;48.892;15.312;2023-05-07T11:56:44;18.43;;;9.30;;
3647;SDS011;1840;48.892;15.312;2023-05-07T11:59:16;19.53;;;10.77;;
3647;SDS011;1840;48.892;15.312;2023-05-07T12:01:45;14.37;;;9.17;;
3647;SDS011;1840;48.892;15.312;2023-05-07T12:04:18;15.98;;;9.23;;
3647;SDS011;1840;48.892;15.312;2023-05-07T12:06:49;19.00;;;9.50;;
3647;SDS011;1840;48.892;15.312;2023-05-07T12:09:21;14.90;;;9.07;;
3647;SDS011;1840;48.892;15.312;2023-05-07T12:11:49;14.50;;;9.07;;
3647;SDS011;1840;48.892;15.312;2023-05-07T12:14:19;15.70;;;9.03;;
3647;SDS011;1840;48.892;15.312;2023-05-07T12:16:47;13.93;;;8.27;;
3647;SDS011;1840;48.892;15.312;2023-05-07T12:19:15;15.03;;;9.43;;
3647;SDS011;1840;48.892;15.312;2023-05-07T12:21:43;13.63;;;8.80;;
3647;SDS011;1840;48.892;15.312;2023-05-07T12:24:13;13.00;;;8.27;;
3647;SDS011;1840;48.892;15.312;2023-05-07T12:26:42;14.17;;;8.00;;
3647;SDS011;1840;48.892;15.312;2023-05-07T12:29:11;12.10;;;7.23;;
3647;SDS011;1840;48.892;15.312;2023-05-07T12:31:40;14.60;;;8.20;;
3647;SDS011;1840;48.892;15.312;2023-05-07T12:34:08;12.37;;;7.77;;
3647;SDS011;1840;48.892;15.312;2023-05-07T12:36:38;12.20;;;8.20;;
3647;SDS011;1840;48.892;15.312;2023-05-07T12:39:07;11.70;;;8.03;;
3647;SDS011;1840;48.892;15.312;2023-05-07T12:41:43;13.77;;;8.40;;
3647;SDS011;1840;48.892;15.312;2023-05-07T12:44:21;9.10;;;5.90;;
3647;SDS011;1840;48.892;15.312;2023-05-07T12:46:50;14.13;;;7.10;;
3647;SDS011;1840;48.892;15.312;2023-05-07T12:49:18;9.40;;;6.53;;
3647;SDS011;1840;48.892;15.312;2023-05-07T12:51:49;10.60;;;6.63;;
3647;SDS011;1840;48.892;15.312;2023-05-07T12:54:27;13.00;;;7.17;;
3647;SDS011;1840;48.892;15.312;2023-05-07T12:57:01;12.47;;;7.30;;
3647;SDS011;1840;48.892;15.312;2023-05-07T12:59:33;11.57;;;6.50;;
3647;SDS011;1840;48.892;15.312;2023-05-07T13:02:02;15.77;;;7.73;;
3647;SDS011;1840;48.892;15.312;2023-05-07T13:04:30;11.23;;;6.30;;
3647;SDS011;1840;48.892;15.312;2023-05-07T13:06:58;10.33;;;6.50;;
3647;SDS011;1840;48.892;15.312;2023-05-07T13:09:27;12.60;;;8.00;;
3647;SDS011;1840;48.892;15.312;2023-05-07T13:11:55;12.63;;;7.30;;
3647;SDS011;1840;48.892;15.312;2023-05-07T13:14:27;11.57;;;7.13;;
3647;SDS011;1840;48.892;15.312;2023-05-07T13:16:55;12.43;;;7.30;;
3647;SDS011;1840;48.892;15.312;2023-05-07T13:19:23;12.37;;;7.13;;
3647;SDS011;1840;48.892;15.312;2023-05-07T13:21:51;10.83;;;6.30;;
3647;SDS011;1840;48.892;15.312;2023-05-07T13:24:19;11.13;;;6.43;;
3647;SDS011;1840;48.892;15.312;2023-05-07T13:26:47;9.90;;;6.60;;
3647;SDS011;1840;48.892;15.312;2023-05-07T13:29:15;10.00;;;6.10;;
3647;SDS011;1840;48.892;15.312;2023-05-07T13:31:44;10.60;;;5.97;;
3647;SDS011;1840;48.892;15.312;2023-05-07T13:34:15;10.10;;;6.13;;
3647;SDS011;1840;48.892;15.312;2023-05-07T13:36:43;9.53;;;6.00;;
3647;SDS011;1840;48.892;15.312;2023-05-07T13:39:11;10.00;;;6.20;;
3647;SDS011;1840;48.892;15.312;2023-05-07T13:41:39;11.77;;;5.97;;
3647;SDS011;1840;48.892;15.312;2023-05-07T13:44:07;8.93;;;5.47;;
3647;SDS011;1840;48.892;15.312;2023-05-07T13:46:35;9.50;;;5.50;;
3647;SDS011;1840;48.892;15.312;2023-05-07T13:49:04;12.37;;;6.10;;
3647;SDS011;1840;48.892;15.312;2023-05-07T13:51:32;9.10;;;5.73;;
3647;SDS011;1840;48.892;15.312;2023-05-07T13:54:00;10.83;;;5.10;;
3647;SDS011;1840;48.892;15.312;2023-05-07T13:56:29;7.80;;;5.03;;
3647;SDS011;1840;48.892;15.312;2023-05-07T13:58:58;8.27;;;5.20;;
3647;SDS011;1840;48.892;15.312;2023-05-07T14:01:26;11.10;;;6.77;;
3647;SDS011;1840;48.892;15.312;2023-05-07T14:03:55;13.40;;;5.60;;
3647;SDS011;1840;48.892;15.312;2023-05-07T14:06:25;7.50;;;5.13;;
3647;SDS011;1840;48.892;15.312;2023-05-07T14:08:53;8.07;;;5.00;;
3647;SDS011;1840;48.892;15.312;2023-05-07T14:11:24;8.40;;;5.40;;
3647;SDS011;1840;48.892;15.312;2023-05-07T14:13:52;8.70;;;5.27;;
3647;SDS011;1840;48.892;15.312;2023-05-07T14:16:20;8.30;;;5.07;;
3647;SDS011;1840;48.892;15.312;2023-05-07T14:18:48;9.07;;;5.07;;
3647;SDS011;1840;48.892;15.312;2023-05-07T14:21:16;8.77;;;4.80;;
3647;SDS011;1840;48.892;15.312;2023-05-07T14:23:45;10.40;;;5.23;;
3647;SDS011;1840;48.892;15.312;2023-05-07T14:26:13;10.20;;;5.23;;
3647;SDS011;1840;48.892;15.312;2023-05-07T14:28:41;10.23;;;4.97;;
3647;SDS011;1840;48.892;15.312;2023-05-07T14:31:12;8.13;;;4.50;;
3647;SDS011;1840;48.892;15.312;2023-05-07T14:33:41;7.30;;;4.37;;
3647;SDS011;1840;48.892;15.312;2023-05-07T14:36:09;7.13;;;4.50;;
3647;SDS011;1840;48.892;15.312;2023-05-07T14:38:37;7.43;;;4.57;;
3647;SDS011;1840;48.892;15.312;2023-05-07T14:41:06;9.30;;;4.80;;
3647;SDS011;1840;48.892;15.312;2023-05-07T14:43:34;8.23;;;4.80;;
3647;SDS011;1840;48.892;15.312;2023-05-07T14:46:02;8.10;;;4.87;;
3647;SDS011;1840;48.892;15.312;2023-05-07T14:48:30;8.55;;;4.65;;
3647;SDS011;1840;48.892;15.312;2023-05-07T14:50:58;12.57;;;3.93;;
3647;SDS011;1840;48.892;15.312;2023-05-07T14:53:26;8.33;;;4.00;;
3647;SDS011;1840;48.892;15.312;2023-05-07T14:55:54;7.60;;;4.33;;
3647;SDS011;1840;48.892;15.312;2023-05-07T14:58:24;8.50;;;4.50;;
3647;SDS011;1840;48.892;15.312;2023-05-07T15:00:52;7.30;;;3.90;;
3647;SDS011;1840;48.892;15.312;2023-05-07T15:03:20;6.70;;;4.33;;
3647;SDS011;1840;48.892;15.312;2023-05-07T15:05:49;7.03;;;3.83;;
3647;SDS011;1840;48.892;15.312;2023-05-07T15:08:18;6.30;;;3.80;;
3647;SDS011;1840;48.892;15.312;2023-05-07T15:10:46;10.57;;;4.93;;